Time;durP1;ratioP1;P1;durP2;ratioP2;P2;SDS_P1;SDS_P2;PMS_P1;PMS_P2;Temp;Humidity;BMP_temperature;BMP_pressure;BME280_temperature;BME280_humidity;BME280_pressure;Samples;Min_cycle;Max_cycle;Signal;HPM_P1;HPM_P2
2024/02/06 00:05:31;;;;;;;33.50;13.60;;;;;;;3.90;91.00;99077.90;681826;1265;138843;-82
2024/02/06 00:20:35;;;;;;;21.60;10.80;;;;;;;3.99;90.90;99072.88;681910;1262;139056;-81
2024/02/06 00:35:41;;;;;;;19.90;10.20;;;;;;;4.08;90.39;99054.20;681957;1260;138940;-82
2024/02/06 00:50:46;;;;;;;14.00;7.90;;;;;;;4.16;89.66;99039.56;682078;1265;138694;-81
2024/02/06 01:05:52;;;;;;;18.60;9.10;;;;;;;4.18;90.12;99032.98;681816;1265;139540;-81
2024/02/06 01:20:56;;;;;;;16.60;8.10;;;;;;;4.24;90.25;99024.34;682068;1265;139388;-82
2024/02/06 01:36:01;;;;;;;16.10;8.80;;;;;;;4.20;90.83;99004.45;682048;1261;138958;-82
2024/02/06 01:51:06;;;;;;;25.20;10.10;;;;;;;4.36;91.53;98992.25;682273;1262;138844;-82
2024/02/06 02:06:15;;;;;;;22.70;12.90;;;;;;;4.31;91.81;98973.44;682158;1260;138843;-82
2024/02/06 02:21:19;;;;;;;18.70;8.80;;;;;;;4.33;91.84;98968.04;682160;1262;139294;-84
2024/02/06 02:36:23;;;;;;;19.20;9.60;;;;;;;4.41;92.56;98950.79;682252;1264;138437;-82
2024/02/06 02:51:28;;;;;;;32.90;16.80;;;;;;;4.53;93.20;98939.43;682038;1261;138899;-81
2024/02/06 03:06:37;;;;;;;48.50;22.70;;;;;;;4.50;93.94;98931.66;682230;1263;141554;-81
2024/02/06 03:21:42;;;;;;;66.60;28.60;;;;;;;4.64;93.27;98923.27;682176;1265;138731;-81
2024/02/06 03:36:46;;;;;;;41.80;18.80;;;;;;;4.82;93.20;98921.52;681996;1265;138662;-82
2024/02/06 03:51:50;;;;;;;41.10;19.30;;;;;;;4.88;93.79;98904.04;681966;1262;138895;-82
2024/02/06 04:06:58;;;;;;;102.00;37.40;;;;;;;5.07;93.84;98882.45;682174;1263;138390;-82
2024/02/06 04:22:03;;;;;;;176.70;71.70;;;;;;;5.19;93.88;98870.20;682108;1262;139536;-82
2024/02/06 04:37:07;;;;;;;105.80;46.60;;;;;;;5.18;94.39;98862.45;682110;1260;139676;-83
2024/02/06 04:52:11;;;;;;;144.80;50.10;;;;;;;5.19;95.27;98845.57;682218;1265;138704;-83
2024/02/06 05:07:21;;;;;;;93.60;36.90;;;;;;;5.30;97.13;98824.16;682347;1260;138800;-82
2024/02/06 05:22:26;;;;;;;65.90;26.60;;;;;;;5.73;98.47;98810.41;682260;1264;138525;-81
2024/02/06 05:37:33;;;;;;;59.00;29.40;;;;;;;6.43;100.00;98811.11;682405;1264;139213;-83
2024/02/06 05:52:36;;;;;;;14.80;7.50;;;;;;;7.41;100.00;98812.98;682175;1264;139505;-80
2024/02/06 06:07:40;;;;;;;15.20;7.90;;;;;;;8.54;100.00;98808.73;682180;1264;139507;-80
2024/02/06 06:22:44;;;;;;;14.30;6.80;;;;;;;9.01;100.00;98800.82;682227;1262;138840;-80
2024/02/06 06:37:48;;;;;;;10.20;7.20;;;;;;;9.07;100.00;98787.13;682180;1264;140053;-82
2024/02/06 06:52:52;;;;;;;25.90;12.20;;;;;;;9.13;100.00;98778.60;682328;1263;139293;-82
2024/02/06 07:07:55;;;;;;;18.60;9.00;;;;;;;9.34;100.00;98782.33;682086;1265;139521;-81
2024/02/06 07:23:00;;;;;;;14.00;5.70;;;;;;;9.44;100.00;98780.75;682207;1265;139978;-81
2024/02/06 07:38:03;;;;;;;20.30;10.10;;;;;;;9.54;100.00;98783.00;682073;1264;139092;-81
2024/02/06 07:53:13;;;;;;;7.90;5.10;;;;;;;9.65;100.00;98778.35;682230;1260;141424;-83
2024/02/06 08:08:16;;;;;;;11.00;6.10;;;;;;;9.77;100.00;98775.96;681951;1262;138457;-81
2024/02/06 08:23:22;;;;;;;16.00;9.10;;;;;;;9.74;100.00;98771.23;682195;1264;139411;-82
2024/02/06 08:38:27;;;;;;;20.70;11.10;;;;;;;9.80;100.00;98763.91;682369;1264;139439;-82
2024/02/06 08:53:33;;;;;;;17.50;8.80;;;;;;;9.73;100.00;98756.67;682292;1263;149344;-85
2024/02/06 09:08:39;;;;;;;25.50;12.80;;;;;;;9.97;100.00;98754.93;682323;1263;138494;-82
2024/02/06 09:23:57;;;;;;;24.30;10.40;;;;;;;10.02;100.00;98748.33;682356;1260;138678;-82
2024/02/06 09:39:02;;;;;;;13.40;8.20;;;;;;;9.91;100.00;98749.18;682170;1264;139180;-85
2024/02/06 09:54:20;;;;;;;20.00;10.60;;;;;;;9.91;100.00;98753.91;682307;1260;139174;-83
2024/02/06 10:09:30;;;;;;;13.30;7.60;;;;;;;9.94;100.00;98748.85;682290;1264;139704;-82
2024/02/06 10:24:33;;;;;;;16.20;9.00;;;;;;;9.87;100.00;98750.43;682096;1262;139173;-84
2024/02/06 10:39:38;;;;;;;27.90;12.70;;;;;;;10.09;100.00;98733.02;681996;1264;140028;-82
2024/02/06 10:54:42;;;;;;;24.10;8.70;;;;;;;10.36;100.00;98723.81;682206;1264;139227;-82
2024/02/06 11:09:47;;;;;;;30.80;13.20;;;;;;;10.28;100.00;98727.28;682170;1264;139736;-84
2024/02/06 11:24:54;;;;;;;17.60;8.30;;;;;;;10.36;100.00;98718.05;682230;1264;139879;-83
2024/02/06 11:40:08;;;;;;;13.90;8.00;;;;;;;10.47;100.00;98710.47;682052;1266;139064;-85
2024/02/06 11:55:11;;;;;;;16.20;7.30;;;;;;;10.37;100.00;98704.96;682308;1264;140305;-83
2024/02/06 12:10:29;;;;;;;22.10;11.80;;;;;;;10.31;100.00;98693.77;681988;1265;138967;-85
2024/02/06 12:25:35;;;;;;;15.00;7.10;;;;;;;10.35;100.00;98676.13;682088;1264;139234;-82
2024/02/06 12:40:43;;;;;;;17.40;9.20;;;;;;;10.26;100.00;98670.05;682115;1265;138834;-84
2024/02/06 12:55:50;;;;;;;17.50;9.40;;;;;;;10.20;100.00;98650.27;682132;1260;139091;-84
2024/02/06 13:10:55;;;;;;;9.40;5.50;;;;;;;10.18;100.00;98639.95;682032;1264;139083;-82
2024/02/06 13:26:01;;;;;;;9.00;5.80;;;;;;;10.26;100.00;98632.66;681965;1265;138981;-83
2024/02/06 13:41:08;;;;;;;29.00;12.50;;;;;;;10.20;100.00;98618.75;682136;1264;140554;-83
2024/02/06 13:56:12;;;;;;;17.60;7.40;;;;;;;10.36;100.00;98603.69;682063;1267;139334;-82
2024/02/06 14:11:18;;;;;;;19.60;6.60;;;;;;;10.45;100.00;98584.95;682169;1264;138767;-83
2024/02/06 14:26:23;;;;;;;10.80;6.10;;;;;;;10.24;100.00;98570.27;682012;1264;139105;-83
2024/02/06 14:41:27;;;;;;;15.60;7.10;;;;;;;10.28;100.00;98545.77;682245;1260;138863;-84
2024/02/06 14:56:31;;;;;;;13.00;7.30;;;;;;;10.26;100.00;98522.92;681967;1265;139143;-83
2024/02/06 15:11:39;;;;;;;42.20;15.90;;;;;;;10.09;100.00;98514.02;682062;1264;139534;-84
2024/02/06 15:26:42;;;;;;;26.70;12.50;;;;;;;10.21;100.00;98508.13;682013;1266;139545;-85
2024/02/06 15:41:46;;;;;;;19.20;9.70;;;;;;;10.31;100.00;98496.60;682126;1264;138966;-82
2024/02/06 15:56:51;;;;;;;33.30;14.10;;;;;;;10.25;100.00;98484.65;682107;1267;138795;-83
2024/02/06 16:11:55;;;;;;;18.60;7.70;;;;;;;10.43;100.00;98464.21;682164;1264;139427;-82
2024/02/06 16:26:59;;;;;;;21.10;10.80;;;;;;;10.42;100.00;98447.68;682037;1266;138918;-83
2024/02/06 16:42:03;;;;;;;24.30;10.90;;;;;;;10.41;100.00;98433.42;682045;1261;140482;-82
2024/02/06 16:57:07;;;;;;;27.20;11.20;;;;;;;10.53;100.00;98415.30;682012;1266;140141;-83
2024/02/06 17:12:10;;;;;;;17.50;7.60;;;;;;;10.58;100.00;98396.48;682042;1264;138991;-82
2024/02/06 17:27:22;;;;;;;33.70;14.20;;;;;;;10.48;100.00;98379.86;681965;1265;138906;-84
2024/02/06 17:42:27;;;;;;;16.30;7.20;;;;;;;10.63;100.00;98367.17;681998;1263;138925;-83
2024/02/06 17:57:32;;;;;;;18.70;7.70;;;;;;;10.61;100.00;98343.80;682074;1264;140144;-82
2024/02/06 18:12:36;;;;;;;12.50;5.80;;;;;;;10.54;100.00;98332.70;682157;1261;139334;-85
2024/02/06 18:27:39;;;;;;;13.40;6.00;;;;;;;10.63;100.00;98314.48;681928;1274;138751;-83
2024/02/06 18:42:46;;;;;;;11.80;5.90;;;;;;;10.58;100.00;98301.30;682138;1260;138656;-84
2024/02/06 18:57:50;;;;;;;13.20;6.20;;;;;;;10.73;100.00;98278.54;682186;1261;139011;-82
2024/02/06 19:12:57;;;;;;;11.00;4.90;;;;;;;10.90;100.00;98267.86;682128;1263;138700;-83
2024/02/06 19:28:01;;;;;;;8.00;4.20;;;;;;;10.92;100.00;98257.11;681986;1267;139322;-83
2024/02/06 19:43:04;;;;;;;12.40;6.70;;;;;;;10.85;100.00;98244.89;682236;1260;138808;-84
2024/02/06 19:58:08;;;;;;;9.40;5.40;;;;;;;10.82;100.00;98232.31;681970;1263;139286;-84
2024/02/06 20:13:12;;;;;;;11.40;5.30;;;;;;;10.71;100.00;98209.36;682215;1264;139856;-83
2024/02/06 20:28:17;;;;;;;8.10;4.80;;;;;;;10.74;100.00;98196.41;682062;1263;139297;-81
2024/02/06 20:43:21;;;;;;;26.00;13.10;;;;;;;10.75;100.00;98172.48;682118;1276;139539;-82
2024/02/06 20:58:24;;;;;;;44.00;16.70;;;;;;;10.86;100.00;98156.00;681874;1262;205615;-83
2024/02/06 21:13:34;;;;;;;9.60;5.00;;;;;;;10.95;100.00;98126.70;682050;1262;138891;-82
2024/02/06 21:28:41;;;;;;;9.10;4.30;;;;;;;11.10;100.00;98108.23;682086;1261;138702;-83
2024/02/06 21:43:50;;;;;;;10.20;4.60;;;;;;;11.14;100.00;98086.42;681908;1264;138966;-86
2024/02/06 21:58:55;;;;;;;6.30;3.80;;;;;;;11.21;100.00;98066.15;681906;1264;139073;-82
2024/02/06 22:14:01;;;;;;;15.80;5.80;;;;;;;11.29;100.00;98048.02;682126;1262;139339;-82
2024/02/06 22:29:06;;;;;;;8.50;3.40;;;;;;;11.29;100.00;98036.15;682121;1262;141684;-82
2024/02/06 22:44:09;;;;;;;7.60;3.30;;;;;;;11.18;100.00;98020.95;682009;1265;138871;-81
2024/02/06 22:59:13;;;;;;;5.70;2.70;;;;;;;11.31;99.82;98006.56;682241;1261;138479;-82
2024/02/06 23:14:17;;;;;;;6.40;3.50;;;;;;;11.42;98.78;97982.54;682072;1264;138577;-81
2024/02/06 23:29:21;;;;;;;5.30;3.30;;;;;;;11.37;98.16;97968.75;682177;1263;139809;-85
2024/02/06 23:44:24;;;;;;;6.90;4.10;;;;;;;11.33;98.72;97950.20;682110;1263;138990;-82
2024/02/06 23:59:28;;;;;;;7.20;3.40;;;;;;;10.93;99.93;97947.54;682277;1263;138477;-85
